Terminal Aerodrome Forecast
Issued by NWS

Home | Current Version | Previous Version | Text Only | Print | Product List | Glossary On
Versions: 1 2 3 4 5 6 7 8 9 10 11 12 13 14 15 16 17 18 19 20 21 22 23 24 25 26 27 28 29 30 31
000
FTUS41 KBOX 271417 AAA
TAFACK
TAF AMD
KACK 271417Z 2714/2812 02013G22KT 6SM -SHRA BR OVC003
     FM271600 01013G21KT 3SM BR OVC003
     FM272200 01010G20KT 6SM BR OVC008
     FM280600 02011KT 3/4SM -SHRASN OVC015=

USA.gov is the U.S. government's official web portal to all federal, state and local government web resources and services.